METAR Data
IDs: Format: Raw Decoded Include TAF

Data at: 1753 UTC 25 Mar 2019

KSGR 251653Z 26006KT 10SM BKN025 24/19 A3012 RMK AO2 SLP201 T02440194
KSGR 251553Z 32005KT 10SM SCT016 BKN021 OVC027 23/19 A3014 RMK AO2 SLP209 T02280194
KSGR 251514Z 33004KT 10SM SCT012 OVC020 22/19 A3013 RMK AO2 T02220194
KSGR 251453Z 00000KT 9SM OVC012 22/20 A3012 RMK AO2 SLP201 T02220200 51024
KSGR 251437Z 00000KT 10SM BKN012 BKN018 OVC025 22/19 A3012 RMK AO2 T02220194
KSGR 251417Z 00000KT 9SM SCT012 OVC025 22/20 A3011 RMK AO2 T02220200
KSGR 251400Z 00000KT 9SM BKN010 BKN015 OVC023 22/19 A3010 RMK AO2 T02170194
KSGR 251353Z 00000KT 9SM BKN007 OVC013 22/20 A3010 RMK AO2 SLP194 T02170200
KSGR 251253Z 24005KT 4SM BR BKN007 OVC011 21/19 A3008 RMK AO2 CIG 006V009 SLP186 T02110194
KSGR 251153Z 22004KT 10SM OVC009 21/19 A3005 RMK AO2 CIG 007V013 SLP178 T02110194 10211 20206 53006
KSGR 251053Z 21007KT 10SM OVC008 21/19 A3004 RMK AO2 SLP173 T02110194
KSGR 250953Z AUTO 21007KT 9SM OVC009 21/19 A3002 RMK AO2 CIG 007V011 SLP168 T02060194
KSGR 250853Z AUTO 20006KT 7SM OVC009 21/19 A3003 RMK AO2 CIG 005V011 SLP171 T02060194 58013
KSGR 250753Z AUTO 21003KT 7SM OVC006 21/19 A3006 RMK AO2 SLP179 T02060194
KSGR 250653Z AUTO 21007KT 9SM OVC006 21/19 A3008 RMK AO2 SLP186 T02060194
KSGR 250553Z AUTO 18011KT 10SM OVC009 21/19 A3007 RMK AO2 SLP183 T02110189 10244 20200 402720172 51005
KSGR 250531Z AUTO 17010KT 10SM BKN009 OVC046 21/19 A3007 RMK AO2 T02110194
KSGR 250511Z AUTO 17007KT 10SM BKN010 OVC046 21/19 A3007 RMK AO2 T02110189
KSGR 250453Z AUTO 17007KT 10SM FEW009 OVC046 21/19 A3007 RMK AO2 SLP183 T02060189
KSGR 250440Z AUTO 16006KT 10SM FEW009 OVC046 20/19 A3007 RMK AO2 T02000189
KSGR 250353Z AUTO 16006KT 10SM CLR 20/18 A3007 RMK AO2 SLP183 T02000183
KSGR 250253Z AUTO 16005KT 10SM FEW029 20/18 A3006 RMK AO2 SLP179 T02000183 53009
KSGR 250153Z 17007KT 10SM FEW020 SCT032 21/19 A3004 RMK AO2 SLP172 T02110189
KSGR 250053Z 16011KT 10SM BKN055 23/19 A3002 RMK AO2 SLP168 T02280189
KSGR 242353Z 17013KT 10SM OVC055 24/19 A3003 RMK AO2 SLP170 T02440194 10272 20244 56005
KSGR 242253Z 17010KT 10SM OVC060 25/19 A3003 RMK AO2 SLP170 T02500194
KSGR 242153Z 17012KT 10SM OVC055 26/19 A3004 RMK AO2 SLP172 T02610194
KSGR 242053Z 16010KT 10SM FEW029 OVC055 26/19 A3004 RMK AO2 SLP175 T02610194 56018
KSGR 241953Z 16011KT 10SM FEW030 FEW038 BKN055 26/19 A3006 RMK AO2 SLP179 T02610189
KSGR 241853Z 17011KT 10SM BKN038 OVC048 26/18 A3008 RMK AO2 SLP187 T02560183
KSGR 241753Z 17011KT 10SM FEW038 SCT055 27/19 A3010 RMK AO2 SLP193 T02670194 10267 20172 58009
KSGR 241653Z 17007KT 10SM SCT022 BKN034 OVC045 24/19 A3012 RMK AO2 SLP201 T02390189
KSGR 241642Z 18011KT 10SM SCT023 BKN034 OVC049 24/19 A3012 RMK AO2 T02440189
KSGR 241553Z 20010KT 10SM SCT019 BKN023 OVC039 23/19 A3014 RMK AO2 SLP206 T02330189
KSGR 241544Z 18008KT 10SM FEW017 BKN023 OVC039 23/19 A3014 RMK AO2 T02280189
KSGR 241537Z 18009KT 10SM FEW015 BKN030 OVC037 23/19 A3013 RMK AO2 T02280189
KSGR 241506Z 18009KT 10SM BKN013 BKN026 OVC034 23/19 A3013 RMK AO2 T02280189
KSGR 241453Z 16009KT 10SM SCT010 BKN033 23/19 A3012 RMK AO2 SLP202 T02280194 53010
KSGR 241439Z 16008KT 10SM FEW010 SCT027 22/19 A3012 RMK AO2 T02220189
KSGR 241425Z 16007KT 10SM BKN027 22/19 A3012 RMK AO2 T02170189
KSGR 241353Z 16008KT 9SM BKN035 20/18 A3010 RMK AO2 SLP195 T02000183
KSGR 241253Z 14003KT 6SM BR BKN045 OVC065 18/17 A3011 RMK AO2 SLP196 T01830167
KSGR 241153Z 00000KT 7SM SCT022 SCT040 BKN060 18/16 A3010 RMK AO2 SLP192 T01780161 10183 20172 53006
KSGR 241112Z 11003KT 8SM FEW023 SCT044 BKN065 18/16 A3009 RMK AO2 T01780161
KSGR 241053Z 11004KT 8SM BKN023 BKN028 OVC065 18/16 A3009 RMK AO2 SLP190 T01780161
KSGR 241014Z AUTO 12004KT 9SM BKN020 OVC070 18/16 A3008 RMK AO2 T01780161
KSGR 240953Z AUTO 11003KT 8SM FEW020 BKN065 17/16 A3008 RMK AO2 SLP187 T01720161
KSGR 240853Z AUTO 12003KT 9SM CLR 17/16 A3008 RMK AO2 SLP186 T01720156 58006
KSGR 240753Z AUTO 11003KT 10SM FEW065 17/16 A3009 RMK AO2 SLP189 T01720156
KSGR 240653Z AUTO 10003KT 10SM CLR 18/16 A3009 RMK AO2 SLP191 T01780156